sensor_id;sensor_type;location;lat;lon;timestamp;temperature;humidity
22337;DHT22;14992;50.844;4.418;2023-06-10T00:02:54;23.40;99.30
22337;DHT22;14992;50.844;4.418;2023-06-10T00:05:32;23.40;99.60
22337;DHT22;14992;50.844;4.418;2023-06-10T00:08:17;23.40;99.60
22337;DHT22;14992;50.844;4.418;2023-06-10T00:10:58;23.30;99.90
22337;DHT22;14992;50.844;4.418;2023-06-10T00:13:33;23.20;99.90
22337;DHT22;14992;50.844;4.418;2023-06-10T00:16:13;23.10;99.90
22337;DHT22;14992;50.844;4.418;2023-06-10T00:18:49;23.10;99.90
22337;DHT22;14992;50.844;4.418;2023-06-10T00:21:26;23.00;99.90
22337;DHT22;14992;50.844;4.418;2023-06-10T00:23:59;23.00;99.90
22337;DHT22;14992;50.844;4.418;2023-06-10T00:26:35;22.90;99.90
22337;DHT22;14992;50.844;4.418;2023-06-10T00:29:04;22.90;99.90
22337;DHT22;14992;50.844;4.418;2023-06-10T00:31:37;22.90;99.90
22337;DHT22;14992;50.844;4.418;2023-06-10T00:34:25;22.90;99.90
22337;DHT22;14992;50.844;4.418;2023-06-10T00:37:12;22.80;99.90
22337;DHT22;14992;50.844;4.418;2023-06-10T00:39:45;22.80;99.90
22337;DHT22;14992;50.844;4.418;2023-06-10T00:42:27;22.80;99.90
22337;DHT22;14992;50.844;4.418;2023-06-10T00:45:12;22.80;99.90
22337;DHT22;14992;50.844;4.418;2023-06-10T00:47:53;22.70;99.90
22337;DHT22;14992;50.844;4.418;2023-06-10T00:50:32;22.80;99.90
22337;DHT22;14992;50.844;4.418;2023-06-10T00:53:10;22.80;99.90
22337;DHT22;14992;50.844;4.418;2023-06-10T00:55:41;22.80;99.90
22337;DHT22;14992;50.844;4.418;2023-06-10T00:58:18;22.80;99.90
22337;DHT22;14992;50.844;4.418;2023-06-10T01:00:53;22.80;99.90
22337;DHT22;14992;50.844;4.418;2023-06-10T01:03:41;22.80;99.90
22337;DHT22;14992;50.844;4.418;2023-06-10T01:06:30;22.70;99.90
22337;DHT22;14992;50.844;4.418;2023-06-10T01:09:16;22.70;99.90
22337;DHT22;14992;50.844;4.418;2023-06-10T01:11:59;22.70;99.90
22337;DHT22;14992;50.844;4.418;2023-06-10T01:14:40;22.60;99.90
22337;DHT22;14992;50.844;4.418;2023-06-10T01:17:28;22.60;99.90
22337;DHT22;14992;50.844;4.418;2023-06-10T01:20:08;22.60;99.90
22337;DHT22;14992;50.844;4.418;2023-06-10T01:22:50;22.50;99.90
22337;DHT22;14992;50.844;4.418;2023-06-10T01:25:30;22.50;99.90
22337;DHT22;14992;50.844;4.418;2023-06-10T01:28:19;22.50;99.90
22337;DHT22;14992;50.844;4.418;2023-06-10T01:31:09;22.50;99.90
22337;DHT22;14992;50.844;4.418;2023-06-10T01:33:58;22.50;99.90
22337;DHT22;14992;50.844;4.418;2023-06-10T01:36:40;22.50;99.90
22337;DHT22;14992;50.844;4.418;2023-06-10T01:39:21;22.50;99.90
22337;DHT22;14992;50.844;4.418;2023-06-10T01:41:59;22.50;99.90
22337;DHT22;14992;50.844;4.418;2023-06-10T01:44:44;22.50;99.90
22337;DHT22;14992;50.844;4.418;2023-06-10T01:47:22;22.50;99.90
22337;DHT22;14992;50.844;4.418;2023-06-10T01:49:52;22.40;99.90
22337;DHT22;14992;50.844;4.418;2023-06-10T01:52:26;22.40;99.90
22337;DHT22;14992;50.844;4.418;2023-06-10T01:55:03;22.40;99.90
22337;DHT22;14992;50.844;4.418;2023-06-10T01:57:44;22.30;99.90
22337;DHT22;14992;50.844;4.418;2023-06-10T02:00:25;22.30;99.90
22337;DHT22;14992;50.844;4.418;2023-06-10T02:03:14;22.30;99.90
22337;DHT22;14992;50.844;4.418;2023-06-10T02:05:56;22.30;99.90
22337;DHT22;14992;50.844;4.418;2023-06-10T02:08:33;22.30;99.90
22337;DHT22;14992;50.844;4.418;2023-06-10T02:11:10;22.30;99.90
22337;DHT22;14992;50.844;4.418;2023-06-10T02:13:44;22.30;99.90
22337;DHT22;14992;50.844;4.418;2023-06-10T02:16:20;22.20;99.90
22337;DHT22;14992;50.844;4.418;2023-06-10T02:19:02;22.20;99.90
22337;DHT22;14992;50.844;4.418;2023-06-10T02:21:51;22.20;99.90
22337;DHT22;14992;50.844;4.418;2023-06-10T02:24:29;22.20;99.90
22337;DHT22;14992;50.844;4.418;2023-06-10T02:27:17;22.20;99.90
22337;DHT22;14992;50.844;4.418;2023-06-10T02:29:50;22.10;99.90
22337;DHT22;14992;50.844;4.418;2023-06-10T02:32:31;22.10;99.90
22337;DHT22;14992;50.844;4.418;2023-06-10T02:35:08;22.10;99.90
22337;DHT22;14992;50.844;4.418;2023-06-10T02:37:57;22.00;99.90
22337;DHT22;14992;50.844;4.418;2023-06-10T02:40:39;21.90;99.90
22337;DHT22;14992;50.844;4.418;2023-06-10T02:43:17;22.00;99.90
22337;DHT22;14992;50.844;4.418;2023-06-10T02:46:03;22.00;99.90
22337;DHT22;14992;50.844;4.418;2023-06-10T02:48:41;22.00;99.90
22337;DHT22;14992;50.844;4.418;2023-06-10T02:51:22;21.90;99.90
22337;DHT22;14992;50.844;4.418;2023-06-10T02:54:09;21.80;99.90
22337;DHT22;14992;50.844;4.418;2023-06-10T02:56:42;21.90;99.90
22337;DHT22;14992;50.844;4.418;2023-06-10T02:59:32;22.00;99.90
22337;DHT22;14992;50.844;4.418;2023-06-10T03:02:08;22.00;99.90
22337;DHT22;14992;50.844;4.418;2023-06-10T03:05:03;22.00;99.90
22337;DHT22;14992;50.844;4.418;2023-06-10T03:07:53;21.90;99.90
22337;DHT22;14992;50.844;4.418;2023-06-10T03:10:41;21.70;99.90
22337;DHT22;14992;50.844;4.418;2023-06-10T03:13:27;21.60;99.90
22337;DHT22;14992;50.844;4.418;2023-06-10T03:16:10;21.60;99.90
22337;DHT22;14992;50.844;4.418;2023-06-10T03:18:44;21.70;99.90
22337;DHT22;14992;50.844;4.418;2023-06-10T03:21:26;21.70;99.90
22337;DHT22;14992;50.844;4.418;2023-06-10T03:24:10;21.70;99.90
22337;DHT22;14992;50.844;4.418;2023-06-10T03:26:41;21.70;99.90
22337;DHT22;14992;50.844;4.418;2023-06-10T03:29:19;21.60;99.90
22337;DHT22;14992;50.844;4.418;2023-06-10T03:32:01;21.70;99.90
22337;DHT22;14992;50.844;4.418;2023-06-10T03:34:41;21.70;99.90
22337;DHT22;14992;50.844;4.418;2023-06-10T03:37:24;21.70;99.90
22337;DHT22;14992;50.844;4.418;2023-06-10T03:39:58;21.70;99.90
22337;DHT22;14992;50.844;4.418;2023-06-10T03:42:44;21.70;99.90
22337;DHT22;14992;50.844;4.418;2023-06-10T03:45:25;21.70;99.90
22337;DHT22;14992;50.844;4.418;2023-06-10T03:48:06;21.60;99.90
22337;DHT22;14992;50.844;4.418;2023-06-10T03:50:55;21.60;99.90
22337;DHT22;14992;50.844;4.418;2023-06-10T03:53:33;21.50;99.90
22337;DHT22;14992;50.844;4.418;2023-06-10T03:56:12;21.50;99.90
22337;DHT22;14992;50.844;4.418;2023-06-10T03:58:47;21.60;99.90
22337;DHT22;14992;50.844;4.418;2023-06-10T04:01:21;21.60;99.90
22337;DHT22;14992;50.844;4.418;2023-06-10T04:04:02;21.60;99.90
22337;DHT22;14992;50.844;4.418;2023-06-10T04:06:39;21.60;99.90
22337;DHT22;14992;50.844;4.418;2023-06-10T04:09:17;21.70;99.90
22337;DHT22;14992;50.844;4.418;2023-06-10T04:11:51;21.80;99.90
22337;DHT22;14992;50.844;4.418;2023-06-10T04:14:31;21.80;99.90
22337;DHT22;14992;50.844;4.418;2023-06-10T04:17:13;21.80;99.90
22337;DHT22;14992;50.844;4.418;2023-06-10T04:20:26;21.90;99.90
22337;DHT22;14992;50.844;4.418;2023-06-10T04:23:00;21.80;99.90
22337;DHT22;14992;50.844;4.418;2023-06-10T04:25:35;21.80;99.90
22337;DHT22;14992;50.844;4.418;2023-06-10T04:28:26;21.80;99.90
22337;DHT22;14992;50.844;4.418;2023-06-10T04:30:58;21.80;99.90
22337;DHT22;14992;50.844;4.418;2023-06-10T04:33:37;21.80;99.90
22337;DHT22;14992;50.844;4.418;2023-06-10T04:36:18;21.80;99.90
22337;DHT22;14992;50.844;4.418;2023-06-10T04:38:55;21.90;99.90
22337;DHT22;14992;50.844;4.418;2023-06-10T04:41:37;21.90;99.90
22337;DHT22;14992;50.844;4.418;2023-06-10T04:44:10;21.90;99.90
22337;DHT22;14992;50.844;4.418;2023-06-10T04:46:47;21.90;99.90
22337;DHT22;14992;50.844;4.418;2023-06-10T04:49:19;21.90;99.90
22337;DHT22;14992;50.844;4.418;2023-06-10T04:51:58;22.00;99.90
22337;DHT22;14992;50.844;4.418;2023-06-10T04:54:41;22.00;99.90
22337;DHT22;14992;50.844;4.418;2023-06-10T04:57:23;22.00;99.90
22337;DHT22;14992;50.844;4.418;2023-06-10T04:59:56;22.10;99.90
22337;DHT22;14992;50.844;4.418;2023-06-10T05:02:39;22.10;99.90
22337;DHT22;14992;50.844;4.418;2023-06-10T05:05:23;22.10;99.90
22337;DHT22;14992;50.844;4.418;2023-06-10T05:08:12;22.10;99.90
22337;DHT22;14992;50.844;4.418;2023-06-10T05:10:50;22.00;99.90
22337;DHT22;14992;50.844;4.418;2023-06-10T05:13:20;22.10;99.90
22337;DHT22;14992;50.844;4.418;2023-06-10T05:15:57;22.10;99.90
22337;DHT22;14992;50.844;4.418;2023-06-10T05:18:34;22.20;99.90
22337;DHT22;14992;50.844;4.418;2023-06-10T05:21:14;22.20;99.90
22337;DHT22;14992;50.844;4.418;2023-06-10T05:23:50;22.10;99.90
22337;DHT22;14992;50.844;4.418;2023-06-10T05:26:30;22.20;99.90
22337;DHT22;14992;50.844;4.418;2023-06-10T05:29:07;22.10;99.90
22337;DHT22;14992;50.844;4.418;2023-06-10T05:31:49;22.10;99.90
22337;DHT22;14992;50.844;4.418;2023-06-10T05:34:35;22.10;99.90
22337;DHT22;14992;50.844;4.418;2023-06-10T05:37:09;22.00;99.90
22337;DHT22;14992;50.844;4.418;2023-06-10T05:40:11;22.10;99.90
22337;DHT22;14992;50.844;4.418;2023-06-10T05:42:45;22.20;99.90
22337;DHT22;14992;50.844;4.418;2023-06-10T05:45:30;22.20;99.90
22337;DHT22;14992;50.844;4.418;2023-06-10T05:48:05;22.30;99.90
22337;DHT22;14992;50.844;4.418;2023-06-10T05:50:37;22.10;99.90
22337;DHT22;14992;50.844;4.418;2023-06-10T05:53:14;22.10;99.90
22337;DHT22;14992;50.844;4.418;2023-06-10T05:56:06;22.30;99.90
22337;DHT22;14992;50.844;4.418;2023-06-10T05:58:39;22.20;99.90
22337;DHT22;14992;50.844;4.418;2023-06-10T06:01:24;22.40;99.90
22337;DHT22;14992;50.844;4.418;2023-06-10T06:04:02;22.60;99.90
22337;DHT22;14992;50.844;4.418;2023-06-10T06:06:40;22.70;99.90
22337;DHT22;14992;50.844;4.418;2023-06-10T06:09:20;22.70;99.90
22337;DHT22;14992;50.844;4.418;2023-06-10T06:11:56;22.80;99.90
22337;DHT22;14992;50.844;4.418;2023-06-10T06:14:39;22.80;99.90
22337;DHT22;14992;50.844;4.418;2023-06-10T06:17:22;22.90;99.90
22337;DHT22;14992;50.844;4.418;2023-06-10T06:20:07;22.80;99.90
22337;DHT22;14992;50.844;4.418;2023-06-10T06:22:53;22.90;99.90
22337;DHT22;14992;50.844;4.418;2023-06-10T06:25:35;23.00;99.90
22337;DHT22;14992;50.844;4.418;2023-06-10T06:28:30;23.00;99.90
22337;DHT22;14992;50.844;4.418;2023-06-10T06:31:04;23.10;99.90
22337;DHT22;14992;50.844;4.418;2023-06-10T06:33:51;23.10;99.90
22337;DHT22;14992;50.844;4.418;2023-06-10T06:36:38;23.10;99.90
22337;DHT22;14992;50.844;4.418;2023-06-10T06:39:15;23.10;99.90
22337;DHT22;14992;50.844;4.418;2023-06-10T06:41:54;23.10;99.90
22337;DHT22;14992;50.844;4.418;2023-06-10T06:44:53;23.20;99.90
22337;DHT22;14992;50.844;4.418;2023-06-10T06:47:28;23.30;99.90
22337;DHT22;14992;50.844;4.418;2023-06-10T06:50:03;23.40;99.90
22337;DHT22;14992;50.844;4.418;2023-06-10T06:52:50;23.50;99.90
22337;DHT22;14992;50.844;4.418;2023-06-10T06:55:23;23.60;99.90
22337;DHT22;14992;50.844;4.418;2023-06-10T06:57:55;23.70;99.90
22337;DHT22;14992;50.844;4.418;2023-06-10T07:00:38;23.70;99.90
22337;DHT22;14992;50.844;4.418;2023-06-10T07:03:09;23.80;99.90
22337;DHT22;14992;50.844;4.418;2023-06-10T07:05:49;23.90;99.90
22337;DHT22;14992;50.844;4.418;2023-06-10T07:08:32;24.00;99.90
22337;DHT22;14992;50.844;4.418;2023-06-10T07:11:02;23.90;99.90
22337;DHT22;14992;50.844;4.418;2023-06-10T07:13:43;24.00;99.90
22337;DHT22;14992;50.844;4.418;2023-06-10T07:16:24;24.20;99.90
22337;DHT22;14992;50.844;4.418;2023-06-10T07:19:02;24.20;99.90
22337;DHT22;14992;50.844;4.418;2023-06-10T07:21:38;24.40;99.90
22337;DHT22;14992;50.844;4.418;2023-06-10T07:24:13;24.40;99.90
22337;DHT22;14992;50.844;4.418;2023-06-10T07:26:51;24.50;99.90
22337;DHT22;14992;50.844;4.418;2023-06-10T07:29:29;24.50;99.90
22337;DHT22;14992;50.844;4.418;2023-06-10T07:32:03;24.60;99.90
22337;DHT22;14992;50.844;4.418;2023-06-10T07:34:50;24.70;99.90
22337;DHT22;14992;50.844;4.418;2023-06-10T07:37:28;24.70;99.90
22337;DHT22;14992;50.844;4.418;2023-06-10T07:40:06;24.70;99.90
22337;DHT22;14992;50.844;4.418;2023-06-10T07:42:44;24.80;99.90
22337;DHT22;14992;50.844;4.418;2023-06-10T07:45:21;24.90;99.90
22337;DHT22;14992;50.844;4.418;2023-06-10T07:48:06;25.10;99.90
22337;DHT22;14992;50.844;4.418;2023-06-10T07:50:42;25.20;99.90
22337;DHT22;14992;50.844;4.418;2023-06-10T07:53:19;25.30;99.90
22337;DHT22;14992;50.844;4.418;2023-06-10T07:56:12;25.30;99.90
22337;DHT22;14992;50.844;4.418;2023-06-10T07:58:48;25.40;99.90
22337;DHT22;14992;50.844;4.418;2023-06-10T08:01:30;25.30;99.90
22337;DHT22;14992;50.844;4.418;2023-06-10T08:04:21;25.40;99.90
22337;DHT22;14992;50.844;4.418;2023-06-10T08:06:57;25.40;99.90
22337;DHT22;14992;50.844;4.418;2023-06-10T08:09:29;25.50;99.90
22337;DHT22;14992;50.844;4.418;2023-06-10T08:12:10;25.50;99.90
22337;DHT22;14992;50.844;4.418;2023-06-10T08:14:44;25.60;99.90
22337;DHT22;14992;50.844;4.418;2023-06-10T08:17:22;25.50;99.80
22337;DHT22;14992;50.844;4.418;2023-06-10T08:20:08;25.70;99.80
22337;DHT22;14992;50.844;4.418;2023-06-10T08:22:53;25.70;98.40
22337;DHT22;14992;50.844;4.418;2023-06-10T08:25:30;25.90;97.80
22337;DHT22;14992;50.844;4.418;2023-06-10T08:28:28;26.00;97.10
22337;DHT22;14992;50.844;4.418;2023-06-10T08:31:10;26.10;96.60
22337;DHT22;14992;50.844;4.418;2023-06-10T08:33:46;26.10;95.70
22337;DHT22;14992;50.844;4.418;2023-06-10T08:36:37;26.20;95.90
22337;DHT22;14992;50.844;4.418;2023-06-10T08:39:15;26.30;96.20
22337;DHT22;14992;50.844;4.418;2023-06-10T08:42:04;26.40;95.50
22337;DHT22;14992;50.844;4.418;2023-06-10T08:44:46;26.50;94.30
22337;DHT22;14992;50.844;4.418;2023-06-10T08:47:42;26.80;94.30
22337;DHT22;14992;50.844;4.418;2023-06-10T08:50:21;26.90;94.00
22337;DHT22;14992;50.844;4.418;2023-06-10T08:52:57;27.00;93.80
22337;DHT22;14992;50.844;4.418;2023-06-10T08:55:35;27.00;93.20
22337;DHT22;14992;50.844;4.418;2023-06-10T08:58:13;27.00;92.90
22337;DHT22;14992;50.844;4.418;2023-06-10T09:00:43;27.10;93.70
22337;DHT22;14992;50.844;4.418;2023-06-10T09:03:19;27.20;93.20
22337;DHT22;14992;50.844;4.418;2023-06-10T09:06:02;27.30;92.80
22337;DHT22;14992;50.844;4.418;2023-06-10T09:08:39;27.30;92.50
22337;DHT22;14992;50.844;4.418;2023-06-10T09:11:20;27.20;91.90
22337;DHT22;14992;50.844;4.418;2023-06-10T09:14:04;27.30;92.60
22337;DHT22;14992;50.844;4.418;2023-06-10T09:16:53;27.30;92.50
22337;DHT22;14992;50.844;4.418;2023-06-10T09:19:41;27.40;92.10
22337;DHT22;14992;50.844;4.418;2023-06-10T09:22:20;27.40;90.30
22337;DHT22;14992;50.844;4.418;2023-06-10T09:25:03;27.50;90.20
22337;DHT22;14992;50.844;4.418;2023-06-10T09:27:49;27.70;90.50
22337;DHT22;14992;50.844;4.418;2023-06-10T09:30:27;27.80;90.20
22337;DHT22;14992;50.844;4.418;2023-06-10T09:33:10;27.90;89.60
22337;DHT22;14992;50.844;4.418;2023-06-10T09:35:49;28.00;88.40
22337;DHT22;14992;50.844;4.418;2023-06-10T09:38:32;28.10;87.50
22337;DHT22;14992;50.844;4.418;2023-06-10T09:41:12;28.10;87.00
22337;DHT22;14992;50.844;4.418;2023-06-10T09:43:51;28.10;86.00
22337;DHT22;14992;50.844;4.418;2023-06-10T09:46:33;28.20;84.30
22337;DHT22;14992;50.844;4.418;2023-06-10T09:49:12;28.30;82.20
22337;DHT22;14992;50.844;4.418;2023-06-10T09:51:56;28.30;82.70
22337;DHT22;14992;50.844;4.418;2023-06-10T09:54:35;28.40;83.30
22337;DHT22;14992;50.844;4.418;2023-06-10T09:57:22;28.50;81.70
22337;DHT22;14992;50.844;4.418;2023-06-10T09:59:58;28.70;82.40
22337;DHT22;14992;50.844;4.418;2023-06-10T10:02:53;28.80;79.90
22337;DHT22;14992;50.844;4.418;2023-06-10T10:05:36;28.80;79.20
22337;DHT22;14992;50.844;4.418;2023-06-10T10:08:18;29.00;78.10
22337;DHT22;14992;50.844;4.418;2023-06-10T10:10:53;29.00;78.50
22337;DHT22;14992;50.844;4.418;2023-06-10T10:13:34;29.10;78.40
22337;DHT22;14992;50.844;4.418;2023-06-10T10:16:14;29.10;75.40
22337;DHT22;14992;50.844;4.418;2023-06-10T10:18:59;28.90;71.70
22337;DHT22;14992;50.844;4.418;2023-06-10T10:21:47;28.90;71.90
22337;DHT22;14992;50.844;4.418;2023-06-10T10:24:34;28.90;71.70
22337;DHT22;14992;50.844;4.418;2023-06-10T10:27:36;28.80;71.90
22337;DHT22;14992;50.844;4.418;2023-06-10T10:30:21;28.80;70.70
22337;DHT22;14992;50.844;4.418;2023-06-10T10:33:07;28.70;71.00
22337;DHT22;14992;50.844;4.418;2023-06-10T10:35:46;28.60;70.70
22337;DHT22;14992;50.844;4.418;2023-06-10T10:38:33;28.70;71.50
22337;DHT22;14992;50.844;4.418;2023-06-10T10:41:11;28.80;69.60
22337;DHT22;14992;50.844;4.418;2023-06-10T10:43:47;28.80;69.00
22337;DHT22;14992;50.844;4.418;2023-06-10T10:46:42;28.80;69.60
22337;DHT22;14992;50.844;4.418;2023-06-10T10:49:23;29.00;69.30
22337;DHT22;14992;50.844;4.418;2023-06-10T10:51:59;29.10;68.80
22337;DHT22;14992;50.844;4.418;2023-06-10T10:54:53;29.20;68.30
22337;DHT22;14992;50.844;4.418;2023-06-10T10:57:28;29.30;63.00
22337;DHT22;14992;50.844;4.418;2023-06-10T11:00:12;29.50;62.80
22337;DHT22;14992;50.844;4.418;2023-06-10T11:03:14;29.70;62.80
22337;DHT22;14992;50.844;4.418;2023-06-10T11:05:57;29.70;62.30
22337;DHT22;14992;50.844;4.418;2023-06-10T11:08:59;29.50;64.80
22337;DHT22;14992;50.844;4.418;2023-06-10T11:11:49;29.40;64.00
22337;DHT22;14992;50.844;4.418;2023-06-10T11:14:34;29.40;61.70
22337;DHT22;14992;50.844;4.418;2023-06-10T11:17:22;29.50;60.70
22337;DHT22;14992;50.844;4.418;2023-06-10T11:20:02;29.60;59.40
22337;DHT22;14992;50.844;4.418;2023-06-10T11:23:01;29.70;59.30
22337;DHT22;14992;50.844;4.418;2023-06-10T11:25:39;29.70;60.40
22337;DHT22;14992;50.844;4.418;2023-06-10T11:28:21;29.70;60.30
22337;DHT22;14992;50.844;4.418;2023-06-10T11:31:08;29.70;55.90
22337;DHT22;14992;50.844;4.418;2023-06-10T11:33:42;29.80;56.70
22337;DHT22;14992;50.844;4.418;2023-06-10T11:36:20;29.90;57.60
22337;DHT22;14992;50.844;4.418;2023-06-10T11:39:00;29.90;57.70
22337;DHT22;14992;50.844;4.418;2023-06-10T11:41:35;29.90;56.60
22337;DHT22;14992;50.844;4.418;2023-06-10T11:44:10;30.00;58.90
22337;DHT22;14992;50.844;4.418;2023-06-10T11:46:49;30.10;59.40
22337;DHT22;14992;50.844;4.418;2023-06-10T11:49:21;30.20;58.50
22337;DHT22;14992;50.844;4.418;2023-06-10T11:51:59;29.90;56.60
22337;DHT22;14992;50.844;4.418;2023-06-10T11:54:29;29.80;57.10
22337;DHT22;14992;50.844;4.418;2023-06-10T11:57:07;29.90;57.20
22337;DHT22;14992;50.844;4.418;2023-06-10T11:59:39;30.00;57.70
22337;DHT22;14992;50.844;4.418;2023-06-10T12:02:20;30.00;57.50
22337;DHT22;14992;50.844;4.418;2023-06-10T12:04:54;30.20;56.20
22337;DHT22;14992;50.844;4.418;2023-06-10T12:07:47;30.30;57.00
22337;DHT22;14992;50.844;4.418;2023-06-10T12:10:21;30.10;57.60
22337;DHT22;14992;50.844;4.418;2023-06-10T12:13:02;30.20;58.40
22337;DHT22;14992;50.844;4.418;2023-06-10T12:15:40;30.40;57.20
22337;DHT22;14992;50.844;4.418;2023-06-10T12:18:22;30.50;56.60
22337;DHT22;14992;50.844;4.418;2023-06-10T12:20:53;30.50;56.10
22337;DHT22;14992;50.844;4.418;2023-06-10T12:23:28;30.50;56.30
22337;DHT22;14992;50.844;4.418;2023-06-10T12:25:57;30.80;55.90
22337;DHT22;14992;50.844;4.418;2023-06-10T12:28:28;30.70;56.30
22337;DHT22;14992;50.844;4.418;2023-06-10T12:31:07;30.90;56.40
22337;DHT22;14992;50.844;4.418;2023-06-10T12:33:36;30.90;55.80
22337;DHT22;14992;50.844;4.418;2023-06-10T12:36:16;31.10;55.20
22337;DHT22;14992;50.844;4.418;2023-06-10T12:38:47;31.10;54.90
22337;DHT22;14992;50.844;4.418;2023-06-10T12:41:19;31.10;54.30
22337;DHT22;14992;50.844;4.418;2023-06-10T12:43:49;30.80;54.40
22337;DHT22;14992;50.844;4.418;2023-06-10T12:46:18;30.80;55.00
22337;DHT22;14992;50.844;4.418;2023-06-10T12:48:50;30.90;55.10
22337;DHT22;14992;50.844;4.418;2023-06-10T12:51:21;31.10;55.40
22337;DHT22;14992;50.844;4.418;2023-06-10T12:53:52;31.20;55.20
22337;DHT22;14992;50.844;4.418;2023-06-10T12:56:21;31.20;55.40
22337;DHT22;14992;50.844;4.418;2023-06-10T12:58:51;31.10;55.30
22337;DHT22;14992;50.844;4.418;2023-06-10T13:01:20;31.10;55.30
22337;DHT22;14992;50.844;4.418;2023-06-10T13:03:49;31.00;55.00
22337;DHT22;14992;50.844;4.418;2023-06-10T13:06:18;31.10;55.50
22337;DHT22;14992;50.844;4.418;2023-06-10T13:08:48;31.10;55.60
22337;DHT22;14992;50.844;4.418;2023-06-10T13:11:20;31.30;55.60
22337;DHT22;14992;50.844;4.418;2023-06-10T13:13:48;31.50;54.70
22337;DHT22;14992;50.844;4.418;2023-06-10T13:16:17;31.50;54.80
22337;DHT22;14992;50.844;4.418;2023-06-10T13:18:46;31.60;55.00
22337;DHT22;14992;50.844;4.418;2023-06-10T13:21:15;31.70;54.60
22337;DHT22;14992;50.844;4.418;2023-06-10T13:23:44;31.90;54.10
22337;DHT22;14992;50.844;4.418;2023-06-10T13:26:15;32.00;53.70
22337;DHT22;14992;50.844;4.418;2023-06-10T13:28:45;32.00;52.70
22337;DHT22;14992;50.844;4.418;2023-06-10T13:31:14;32.00;53.00
22337;DHT22;14992;50.844;4.418;2023-06-10T13:33:43;32.10;52.40
22337;DHT22;14992;50.844;4.418;2023-06-10T13:36:12;32.00;51.80
22337;DHT22;14992;50.844;4.418;2023-06-10T13:38:41;31.70;52.00
22337;DHT22;14992;50.844;4.418;2023-06-10T13:41:11;31.60;52.30
22337;DHT22;14992;50.844;4.418;2023-06-10T13:43:40;31.50;52.00
22337;DHT22;14992;50.844;4.418;2023-06-10T13:46:11;31.50;52.70
22337;DHT22;14992;50.844;4.418;2023-06-10T13:48:40;31.50;53.10
22337;DHT22;14992;50.844;4.418;2023-06-10T13:51:09;31.60;52.40
22337;DHT22;14992;50.844;4.418;2023-06-10T13:53:42;31.60;52.20
22337;DHT22;14992;50.844;4.418;2023-06-10T13:56:11;31.50;52.40
22337;DHT22;14992;50.844;4.418;2023-06-10T13:58:42;31.60;52.70
22337;DHT22;14992;50.844;4.418;2023-06-10T14:01:12;31.50;52.50
22337;DHT22;14992;50.844;4.418;2023-06-10T14:03:41;31.50;52.60
22337;DHT22;14992;50.844;4.418;2023-06-10T14:06:10;31.60;52.40
22337;DHT22;14992;50.844;4.418;2023-06-10T14:08:40;31.80;52.10
22337;DHT22;14992;50.844;4.418;2023-06-10T14:11:09;31.90;51.70
22337;DHT22;14992;50.844;4.418;2023-06-10T14:13:38;32.00;51.50
22337;DHT22;14992;50.844;4.418;2023-06-10T14:16:07;32.00;51.20
22337;DHT22;14992;50.844;4.418;2023-06-10T14:18:37;32.20;51.30
22337;DHT22;14992;50.844;4.418;2023-06-10T14:21:06;32.20;51.30
22337;DHT22;14992;50.844;4.418;2023-06-10T14:23:35;32.20;51.40
22337;DHT22;14992;50.844;4.418;2023-06-10T14:26:04;32.30;51.50
22337;DHT22;14992;50.844;4.418;2023-06-10T14:28:35;32.20;51.40
22337;DHT22;14992;50.844;4.418;2023-06-10T14:31:04;32.20;51.30
22337;DHT22;14992;50.844;4.418;2023-06-10T14:33:33;32.00;51.30
22337;DHT22;14992;50.844;4.418;2023-06-10T14:36:03;32.00;51.30
22337;DHT22;14992;50.844;4.418;2023-06-10T14:38:32;31.90;51.40
22337;DHT22;14992;50.844;4.418;2023-06-10T14:41:01;32.10;51.50
22337;DHT22;14992;50.844;4.418;2023-06-10T14:43:30;32.20;50.60
22337;DHT22;14992;50.844;4.418;2023-06-10T14:45:59;32.00;50.50
22337;DHT22;14992;50.844;4.418;2023-06-10T14:48:28;31.90;51.30
22337;DHT22;14992;50.844;4.418;2023-06-10T14:50:57;32.00;51.10
22337;DHT22;14992;50.844;4.418;2023-06-10T14:53:28;32.20;50.60
22337;DHT22;14992;50.844;4.418;2023-06-10T14:55:57;32.20;50.50
22337;DHT22;14992;50.844;4.418;2023-06-10T14:58:26;32.20;50.30
22337;DHT22;14992;50.844;4.418;2023-06-10T15:00:55;32.30;50.60
22337;DHT22;14992;50.844;4.418;2023-06-10T15:03:27;32.20;50.30
22337;DHT22;14992;50.844;4.418;2023-06-10T15:05:56;32.10;50.60
22337;DHT22;14992;50.844;4.418;2023-06-10T15:08:25;32.00;50.60
22337;DHT22;14992;50.844;4.418;2023-06-10T15:10:57;32.00;50.40
22337;DHT22;14992;50.844;4.418;2023-06-10T15:13:26;32.00;50.50
22337;DHT22;14992;50.844;4.418;2023-06-10T15:15:55;32.00;50.40
22337;DHT22;14992;50.844;4.418;2023-06-10T15:18:25;32.10;50.70
22337;DHT22;14992;50.844;4.418;2023-06-10T15:20:54;32.20;50.60
22337;DHT22;14992;50.844;4.418;2023-06-10T15:23:23;32.20;50.10
22337;DHT22;14992;50.844;4.418;2023-06-10T15:25:52;32.20;50.00
22337;DHT22;14992;50.844;4.418;2023-06-10T15:28:23;32.30;49.60
22337;DHT22;14992;50.844;4.418;2023-06-10T15:30:55;32.40;49.80
22337;DHT22;14992;50.844;4.418;2023-06-10T15:33:24;32.70;49.60
22337;DHT22;14992;50.844;4.418;2023-06-10T15:35:53;32.70;49.60
22337;DHT22;14992;50.844;4.418;2023-06-10T15:38:22;32.80;49.70
22337;DHT22;14992;50.844;4.418;2023-06-10T15:40:50;32.80;49.30
22337;DHT22;14992;50.844;4.418;2023-06-10T15:43:22;32.90;49.20
22337;DHT22;14992;50.844;4.418;2023-06-10T15:45:51;32.90;49.40
22337;DHT22;14992;50.844;4.418;2023-06-10T15:48:20;33.10;49.40
22337;DHT22;14992;50.844;4.418;2023-06-10T15:50:49;33.10;49.30
22337;DHT22;14992;50.844;4.418;2023-06-10T15:53:19;33.00;49.40
22337;DHT22;14992;50.844;4.418;2023-06-10T15:55:47;32.90;49.40
22337;DHT22;14992;50.844;4.418;2023-06-10T15:58:17;32.90;49.60
22337;DHT22;14992;50.844;4.418;2023-06-10T16:00:47;33.00;49.10
22337;DHT22;14992;50.844;4.418;2023-06-10T16:03:16;33.30;49.30
22337;DHT22;14992;50.844;4.418;2023-06-10T16:05:46;33.60;49.00
22337;DHT22;14992;50.844;4.418;2023-06-10T16:08:15;34.50;48.20
22337;DHT22;14992;50.844;4.418;2023-06-10T16:10:44;35.30;47.00
22337;DHT22;14992;50.844;4.418;2023-06-10T16:13:13;36.60;46.20
22337;DHT22;14992;50.844;4.418;2023-06-10T16:15:43;37.50;45.20
22337;DHT22;14992;50.844;4.418;2023-06-10T16:18:16;37.40;44.40
22337;DHT22;14992;50.844;4.418;2023-06-10T16:20:45;37.30;44.40
22337;DHT22;14992;50.844;4.418;2023-06-10T16:23:14;37.60;44.10
22337;DHT22;14992;50.844;4.418;2023-06-10T16:25:43;37.70;43.20
22337;DHT22;14992;50.844;4.418;2023-06-10T16:28:13;37.40;43.00
22337;DHT22;14992;50.844;4.418;2023-06-10T16:30:42;36.90;43.20
22337;DHT22;14992;50.844;4.418;2023-06-10T16:33:11;35.70;44.30
22337;DHT22;14992;50.844;4.418;2023-06-10T16:35:42;35.00;45.20
22337;DHT22;14992;50.844;4.418;2023-06-10T16:38:11;34.40;46.30